createdAt,value
2016-04-09T00:00:44.554Z,1010.65
2016-04-09T00:01:31.839Z,1010.65
2016-04-09T00:02:31.857Z,1010.67
2016-04-09T00:03:31.890Z,1010.64
2016-04-09T00:04:31.878Z,1010.6
2016-04-09T00:05:31.895Z,1010.62
2016-04-09T00:06:31.914Z,1010.61
2016-04-09T00:07:31.933Z,1010.63
2016-04-09T00:08:38.217Z,1010.65
2016-04-09T00:09:44.689Z,1010.64
2016-04-09T00:10:51.175Z,1010.63
2016-04-09T00:11:31.991Z,1010.66
2016-04-09T00:12:32.008Z,1010.66
2016-04-09T00:13:32.011Z,1010.61
2016-04-09T00:14:32.030Z,1010.68
2016-04-09T00:15:51.252Z,1010.64
2016-04-09T00:16:32.066Z,1010.65
2016-04-09T00:17:32.069Z,1010.66
2016-04-09T00:18:38.368Z,1010.67
2016-04-09T00:19:44.840Z,1010.59
2016-04-09T00:20:32.124Z,1010.57
2016-04-09T00:21:32.127Z,1010.55
2016-04-09T00:22:32.146Z,1010.52
2016-04-09T00:23:32.163Z,1010.48
2016-04-09T00:24:32.182Z,1010.5
2016-04-09T00:25:32.199Z,1010.51
2016-04-09T00:26:32.202Z,1010.56
2016-04-09T00:27:32.221Z,1010.49
2016-04-09T00:28:32.239Z,1010.5
2016-04-09T00:29:32.257Z,1010.53
2016-04-09T00:30:32.259Z,1010.53
2016-04-09T00:31:45.028Z,1010.5
2016-04-09T00:32:32.297Z,1010.5
2016-04-09T00:33:32.314Z,1010.48
2016-04-09T00:34:32.317Z,1010.48
2016-04-09T00:35:32.398Z,1010.52
2016-04-09T00:36:32.339Z,1010.47
2016-04-09T00:37:45.107Z,1010.47
2016-04-09T00:38:32.375Z,1010.53
2016-04-09T00:39:51.597Z,1010.48
2016-04-09T00:40:35.489Z,1010.49
2016-04-09T00:41:35.492Z,1010.52
2016-04-09T00:42:35.511Z,1010.5
2016-04-09T00:43:35.514Z,1010.46
2016-04-09T00:44:35.533Z,1010.46
2016-04-09T00:45:35.551Z,1010.5
2016-04-09T00:46:35.553Z,1010.46
2016-04-09T00:47:35.588Z,1010.47
2016-04-09T00:48:35.590Z,1010.47
2016-04-09T00:49:35.608Z,1010.44
2016-04-09T00:50:35.611Z,1010.42
2016-04-09T00:51:35.644Z,1010.43
2016-04-09T00:52:35.647Z,1010.45
2016-04-09T00:53:35.868Z,1010.43
2016-04-09T00:54:35.684Z,1010.42
2016-04-09T00:55:35.687Z,1010.44
2016-04-09T00:56:35.923Z,1010.39
2016-04-09T00:57:35.724Z,1010.4
2016-04-09T00:58:35.929Z,1010.38
2016-04-09T00:59:35.760Z,1010.36
2016-04-09T01:00:42.029Z,1010.33
2016-04-09T01:01:35.765Z,1010.36
2016-04-09T01:02:35.784Z,1010.35
2016-04-09T01:03:35.801Z,1010.31
2016-04-09T01:04:35.820Z,1010.39
2016-04-09T01:05:35.823Z,1010.41
2016-04-09T01:06:35.841Z,1010.4
2016-04-09T01:07:35.859Z,1010.4
2016-04-09T01:08:35.877Z,1010.41
2016-04-09T01:09:35.880Z,1010.43
2016-04-09T01:10:35.899Z,1010.41
2016-04-09T01:11:42.183Z,1010.45
2016-04-09T01:12:35.936Z,1010.46
2016-04-09T01:13:35.939Z,1010.44
2016-04-09T01:14:35.956Z,1010.42
2016-04-09T01:15:35.975Z,1010.41
2016-04-09T01:16:48.727Z,1010.39
2016-04-09T01:17:35.996Z,1010.43
2016-04-09T01:18:36.014Z,1010.45
2016-04-09T01:19:48.766Z,1010.42
2016-04-09T01:20:36.052Z,1010.41
2016-04-09T01:21:36.054Z,1010.43
2016-04-09T01:22:36.072Z,1010.41
2016-04-09T01:23:36.091Z,1010.43
2016-04-09T01:24:36.093Z,1010.41
2016-04-09T01:25:36.127Z,1010.39
2016-04-09T01:26:36.129Z,1010.37
2016-04-09T01:27:36.132Z,1010.36
2016-04-09T01:28:36.151Z,1010.35
2016-04-09T01:29:36.168Z,1010.33
2016-04-09T01:30:36.187Z,1010.34
2016-04-09T01:31:48.923Z,1010.32
2016-04-09T01:32:36.208Z,1010.3
2016-04-09T01:33:36.226Z,1010.3
2016-04-09T01:34:36.245Z,1010.3
2016-04-09T01:35:36.263Z,1010.28
2016-04-09T01:36:51.444Z,1010.31
2016-04-09T01:37:51.446Z,1010.31
2016-04-09T01:38:51.465Z,1010.3
2016-04-09T01:39:51.482Z,1010.32
2016-04-09T01:40:51.501Z,1010.34
2016-04-09T01:41:51.504Z,1010.33
2016-04-09T01:42:51.522Z,1010.33
2016-04-09T01:43:52.134Z,1010.35
2016-04-09T01:44:51.542Z,1010.34
2016-04-09T01:45:51.561Z,1010.38
2016-04-09T01:46:52.173Z,1010.34
2016-04-09T01:47:51.661Z,1010.41
2016-04-09T01:49:10.804Z,1010.37
2016-04-09T01:49:51.620Z,1010.35
2016-04-09T01:50:51.622Z,1010.35
2016-04-09T01:51:52.250Z,1010.36
2016-04-09T01:52:51.658Z,1010.36
2016-04-09T01:53:51.661Z,1010.37
2016-04-09T01:54:51.680Z,1010.36
2016-04-09T01:55:51.697Z,1010.36
2016-04-09T01:56:51.716Z,1010.36
2016-04-09T01:57:52.343Z,1010.37
2016-04-09T01:59:04.487Z,1010.35
2016-04-09T02:00:51.774Z,1010.35
2016-04-09T02:01:51.777Z,1010.37
2016-04-09T02:02:51.794Z,1010.32
2016-04-09T02:03:51.813Z,1010.36
2016-04-09T02:05:17.503Z,1010.36
2016-04-09T02:06:01.381Z,1010.37
2016-04-09T02:07:01.399Z,1010.36
2016-04-09T02:08:01.417Z,1010.36
2016-04-09T02:09:14.170Z,1010.39
2016-04-09T02:10:01.437Z,1010.36
2016-04-09T02:11:01.456Z,1010.38
2016-04-09T02:12:01.475Z,1010.39
2016-04-09T02:13:02.103Z,1010.4
2016-04-09T02:14:01.495Z,1010.39
2016-04-09T02:15:01.499Z,1010.4
2016-04-09T02:16:01.533Z,1010.36
2016-04-09T02:17:01.536Z,1010.4
2016-04-09T02:18:01.554Z,1010.36
2016-04-09T02:19:01.572Z,1010.4
2016-04-09T02:20:01.575Z,1010.37
2016-04-09T02:21:14.311Z,1010.39
2016-04-09T02:22:01.595Z,1010.4
2016-04-09T02:23:01.614Z,1010.43
2016-04-09T02:24:01.633Z,1010.41
2016-04-09T02:25:01.651Z,1010.41
2016-04-09T02:26:14.388Z,1010.4
2016-04-09T02:27:14.406Z,1010.39
2016-04-09T02:28:01.691Z,1010.38
2016-04-09T02:29:01.693Z,1010.37
2016-04-09T02:30:01.727Z,1010.41
2016-04-09T02:31:01.729Z,1010.39
2016-04-09T02:32:01.732Z,1010.42
2016-04-09T02:33:01.749Z,1010.44
2016-04-09T02:34:01.768Z,1010.4
2016-04-09T02:35:01.787Z,1010.4
2016-04-09T02:36:01.789Z,1010.37
2016-04-09T02:37:01.807Z,1010.41
2016-04-09T02:38:01.826Z,1010.41
2016-04-09T02:39:14.563Z,1010.42
2016-04-09T02:40:01.848Z,1010.43
2016-04-09T02:41:01.866Z,1010.41
2016-04-09T02:42:01.868Z,1010.42
2016-04-09T02:43:01.887Z,1010.45
2016-04-09T02:44:01.904Z,1010.43
2016-04-09T02:45:01.907Z,1010.43
2016-04-09T02:46:01.926Z,1010.43
2016-04-09T02:47:01.959Z,1010.42
2016-04-09T02:48:27.637Z,1010.44
2016-04-09T02:49:01.981Z,1010.42
2016-04-09T02:50:01.984Z,1010.41
2016-04-09T02:51:14.736Z,1010.41
2016-04-09T02:52:02.005Z,1010.43
2016-04-09T02:53:02.023Z,1010.45
2016-04-09T02:54:02.025Z,1010.39
2016-04-09T02:55:02.059Z,1010.39
2016-04-09T02:56:02.077Z,1010.42
2016-04-09T02:58:02.083Z,1010.42
2016-04-09T02:59:02.101Z,1010.39
2016-04-09T03:00:02.120Z,1010.37
2016-04-09T03:01:02.122Z,1010.39
2016-04-09T03:02:02.141Z,1010.39
2016-04-09T03:03:02.174Z,1010.43
2016-04-09T03:04:02.162Z,1010.35
2016-04-09T03:05:02.211Z,1010.34
2016-04-09T03:06:02.198Z,1010.32
2016-04-09T03:07:02.263Z,1010.29
2016-04-09T03:08:02.219Z,1010.33
2016-04-09T03:09:27.912Z,1010.29
2016-04-09T03:10:02.256Z,1010.27
2016-04-09T03:11:02.259Z,1010.28
2016-04-09T03:12:02.276Z,1010.31
2016-04-09T03:13:08.561Z,1010.3
2016-04-09T03:14:02.314Z,1010.3
2016-04-09T03:15:02.317Z,1010.29
2016-04-09T03:16:02.335Z,1010.28
2016-04-09T03:17:08.603Z,1010.28
2016-04-09T03:18:02.356Z,1010.31
2016-04-09T03:19:02.373Z,1010.3
2016-04-09T03:20:02.376Z,1010.34
2016-04-09T03:21:02.395Z,1010.33
2016-04-09T03:22:02.413Z,1010.34
2016-04-09T03:23:02.416Z,1010.3
2016-04-09T03:24:02.433Z,1010.3
2016-04-09T03:25:21.655Z,1010.37
2016-04-09T03:26:05.517Z,1010.33
2016-04-09T03:27:05.536Z,1010.3
2016-04-09T03:28:05.539Z,1010.3
2016-04-09T03:29:05.557Z,1010.32
2016-04-09T03:30:05.575Z,1010.29
2016-04-09T03:31:18.313Z,1010.28
2016-04-09T03:32:18.330Z,1010.26
2016-04-09T03:33:05.630Z,1010.28
2016-04-09T03:34:05.633Z,1010.25
2016-04-09T03:35:05.635Z,1010.25
2016-04-09T03:36:05.655Z,1010.25
2016-04-09T03:37:05.657Z,1010.27
2016-04-09T03:38:05.675Z,1010.3
2016-04-09T03:39:05.694Z,1010.29
2016-04-09T03:40:05.696Z,1010.29
2016-04-09T03:41:05.715Z,1010.26
2016-04-09T03:42:05.732Z,1010.24
2016-04-09T03:43:05.735Z,1010.25
2016-04-09T03:44:05.754Z,1010.18
2016-04-09T03:45:05.772Z,1010.21
2016-04-09T03:46:05.790Z,1010.2
2016-04-09T03:47:05.792Z,1010.21
2016-04-09T03:48:05.811Z,1010.22
2016-04-09T03:49:05.814Z,1010.27
2016-04-09T03:50:05.832Z,1010.26
2016-04-09T03:51:05.851Z,1010.28
2016-04-09T03:52:05.853Z,1010.27
2016-04-09T03:53:25.075Z,1010.28
2016-04-09T03:54:18.624Z,1010.3
2016-04-09T03:55:31.567Z,1010.3
2016-04-09T03:56:05.911Z,1010.28
2016-04-09T03:57:05.929Z,1010.26
2016-04-09T03:58:05.947Z,1010.24
2016-04-09T03:59:05.949Z,1010.27
2016-04-09T04:00:05.968Z,1010.28
2016-04-09T04:01:05.971Z,1010.27
2016-04-09T04:02:05.989Z,1010.32
2016-04-09T04:03:06.008Z,1010.28
2016-04-09T04:04:06.011Z,1010.27
2016-04-09T04:05:06.638Z,1010.29
2016-04-09T04:06:06.047Z,1010.27
2016-04-09T04:07:07.472Z,1010.25
2016-04-09T04:08:06.068Z,1010.22
2016-04-09T04:09:06.087Z,1010.24
2016-04-09T04:10:06.698Z,1010.24
2016-04-09T04:11:12.373Z,1010.24
2016-04-09T04:12:07.532Z,1010.2
2016-04-09T04:13:06.129Z,1010.24
2016-04-09T04:14:07.569Z,1010.26
2016-04-09T04:15:06.149Z,1010.26
2016-04-09T04:16:31.858Z,1010.26
2016-04-09T04:17:15.701Z,1010.26
2016-04-09T04:18:15.736Z,1010.23
2016-04-09T04:19:15.739Z,1010.25
2016-04-09T04:20:50.150Z,1010.27
2016-04-09T04:21:31.011Z,1010.25
2016-04-09T04:22:30.967Z,1010.28
2016-04-09T04:23:30.986Z,1010.29
2016-04-09T04:24:30.988Z,1010.29
2016-04-09T04:25:46.164Z,1010.27
2016-04-09T04:26:46.181Z,1010.29
2016-04-09T04:27:46.200Z,1010.28
2016-04-09T04:28:58.766Z,1010.29
2016-04-09T04:29:58.769Z,1010.29
2016-04-09T04:30:58.786Z,1010.31
2016-04-09T04:31:58.805Z,1010.27
2016-04-09T04:32:58.807Z,1010.29
2016-04-09T04:33:58.825Z,1010.33
2016-04-09T04:34:58.827Z,1010.34
2016-04-09T04:35:58.846Z,1010.29
2016-04-09T04:37:18.068Z,1010.3
2016-04-09T04:38:33.933Z,1010.24
2016-04-09T04:39:21.011Z,1010.26
2016-04-09T04:41:30.597Z,1010.28
2016-04-09T04:42:17.863Z,1010.29
2016-04-09T04:43:17.881Z,1010.31
2016-04-09T04:44:17.899Z,1010.31
2016-04-09T04:45:17.901Z,1010.33
2016-04-09T04:46:17.920Z,1010.29
2016-04-09T04:47:17.939Z,1010.33
2016-04-09T04:48:18.066Z,1010.31
2016-04-09T04:49:17.959Z,1010.31
2016-04-09T04:50:46.809Z,1010.32
2016-04-09T04:51:30.671Z,1010.33
2016-04-09T04:53:25.080Z,1010.34
2016-04-09T04:54:34.663Z,1010.35
2016-04-09T04:55:34.666Z,1010.38
2016-04-09T04:56:34.762Z,1010.32
2016-04-09T04:57:34.702Z,1010.34
2016-04-09T04:58:36.174Z,1010.37
2016-04-09T04:59:34.724Z,1010.39
2016-04-09T05:00:53.944Z,1010.32
2016-04-09T05:01:37.823Z,1010.31
2016-04-09T05:02:43.966Z,1010.35
2016-04-09T05:03:53.781Z,1010.31
2016-04-09T05:05:19.472Z,1010.34
2016-04-09T05:06:00.083Z,1010.28
2016-04-09T05:06:53.821Z,1010.3
2016-04-09T05:08:08.995Z,1010.31
2016-04-09T05:09:09.013Z,1010.33
2016-04-09T05:10:09.016Z,1010.32
2016-04-09T05:11:21.768Z,1010.34
2016-04-09T05:12:09.052Z,1010.33
2016-04-09T05:13:21.789Z,1010.35
2016-04-09T05:14:09.682Z,1010.29
2016-04-09T05:15:34.767Z,1010.29
2016-04-09T05:16:18.688Z,1010.27
2016-04-09T05:17:44.381Z,1010.24
2016-04-09T05:19:50.073Z,1010.27
2016-04-09T05:20:30.889Z,1010.25
2016-04-09T05:22:46.145Z,1010.25
2016-04-09T05:23:46.163Z,1010.21
2016-04-09T05:24:46.167Z,1010.23
2016-04-09T05:25:58.919Z,1010.24
2016-04-09T05:26:46.203Z,1010.25
2016-04-09T05:27:46.206Z,1010.29
2016-04-09T05:28:46.223Z,1010.25
2016-04-09T05:29:46.305Z,1010.26
2016-04-09T05:31:11.932Z,1010.25
2016-04-09T05:32:08.903Z,1010.26
2016-04-09T05:33:14.953Z,1010.25
2016-04-09T05:34:28.193Z,1010.24
2016-04-09T05:35:21.427Z,1010.25
2016-04-09T05:37:24.682Z,1010.3
2016-04-09T05:38:11.966Z,1010.3
2016-04-09T05:39:27.144Z,1010.32
2016-04-09T05:40:52.818Z,1010.38
2016-04-09T05:42:08.087Z,1010.37
2016-04-09T05:43:20.839Z,1010.31
2016-04-09T05:44:08.123Z,1010.36
2016-04-09T05:45:08.141Z,1010.4
2016-04-09T05:46:08.159Z,1010.46
2016-04-09T05:47:08.162Z,1010.45
2016-04-09T05:48:20.930Z,1010.47
2016-04-09T05:49:08.214Z,1010.5
2016-04-09T05:50:33.892Z,1010.52
2016-04-09T05:51:30.534Z,1010.53
2016-04-09T05:52:49.741Z,1010.5
2016-04-09T05:53:59.275Z,1010.5
2016-04-09T05:55:08.981Z,1010.49
2016-04-09T05:55:52.874Z,1010.49
2016-04-09T05:56:56.049Z,1010.48
2016-04-09T05:58:05.614Z,1010.5
2016-04-09T05:59:15.195Z,1010.49
2016-04-09T06:00:24.916Z,1010.5
2016-04-09T06:01:24.950Z,1010.54
2016-04-09T06:02:24.953Z,1010.56
2016-04-09T06:03:25.002Z,1010.51
2016-04-09T06:04:24.989Z,1010.53
2016-04-09T06:05:37.744Z,1010.53
2016-04-09T06:06:25.041Z,1010.57
2016-04-09T06:07:44.250Z,1010.51
2016-04-09T06:08:37.800Z,1010.61
2016-04-09T06:09:50.755Z,1010.6
2016-04-09T06:10:34.649Z,1010.58
2016-04-09T06:11:34.682Z,1010.61
2016-04-09T06:12:34.685Z,1010.6
2016-04-09T06:13:49.907Z,1010.57
2016-04-09T06:14:50.534Z,1010.54
2016-04-09T06:15:49.960Z,1010.59
2016-04-09T06:16:51.399Z,1010.58
2016-04-09T06:18:02.715Z,1010.57
2016-04-09T06:19:02.749Z,1010.56
2016-04-09T06:19:50.017Z,1010.57
2016-04-09T06:21:09.253Z,1010.58
2016-04-09T06:22:02.834Z,1010.61
2016-04-09T06:22:50.103Z,1010.6
2016-04-09T06:23:50.105Z,1010.62
2016-04-09T06:25:02.858Z,1010.62
2016-04-09T06:26:15.815Z,1010.6
2016-04-09T06:27:02.895Z,1010.62
2016-04-09T06:28:24.351Z,1010.6
2016-04-09T06:29:30.637Z,1010.6
2016-04-09T06:30:24.387Z,1010.61
2016-04-09T06:31:24.422Z,1010.62
2016-04-09T06:32:24.439Z,1010.63
2016-04-09T06:33:25.099Z,1010.62
2016-04-09T06:34:24.476Z,1010.59
2016-04-09T06:35:24.511Z,1010.62
2016-04-09T06:36:37.266Z,1010.61
2016-04-09T06:37:24.547Z,1010.62
2016-04-09T06:38:50.255Z,1010.65
2016-04-09T06:39:24.786Z,1010.67
2016-04-09T06:40:24.618Z,1010.7
2016-04-09T06:41:24.635Z,1010.68
2016-04-09T06:42:24.670Z,1010.67
2016-04-09T06:43:24.688Z,1010.69
2016-04-09T06:44:24.722Z,1010.68
2016-04-09T06:45:37.462Z,1010.67
2016-04-09T06:46:24.759Z,1010.63
2016-04-09T06:47:50.451Z,1010.65
2016-04-09T06:48:34.329Z,1010.69
2016-04-09T06:49:34.363Z,1010.66
2016-04-09T06:50:34.382Z,1010.67
2016-04-09T06:51:34.415Z,1010.66
2016-04-09T06:52:34.434Z,1010.63
2016-04-09T06:53:34.495Z,1010.68
2016-04-09T06:54:34.604Z,1010.72
2016-04-09T06:55:34.636Z,1010.76
2016-04-09T06:56:34.699Z,1010.69
2016-04-09T06:57:34.777Z,1010.69
2016-04-09T06:58:34.813Z,1010.72
2016-04-09T06:59:44.487Z,1010.77
2016-04-09T07:00:44.522Z,1010.73
2016-04-09T07:01:44.555Z,1010.71
2016-04-09T07:02:44.606Z,1010.7
2016-04-09T07:03:44.661Z,1010.7
2016-04-09T07:04:44.669Z,1010.72
2016-04-09T07:05:57.427Z,1010.75
2016-04-09T07:06:44.733Z,1010.74
2016-04-09T07:07:44.757Z,1010.77
2016-04-09T07:08:44.778Z,1010.8
2016-04-09T07:09:44.861Z,1010.8
2016-04-09T07:10:44.834Z,1010.79
2016-04-09T07:11:44.855Z,1010.81
2016-04-09T07:12:44.876Z,1010.76
2016-04-09T07:13:44.910Z,1010.77
2016-04-09T07:14:44.946Z,1010.78
2016-04-09T07:15:44.965Z,1010.81
2016-04-09T07:16:45.016Z,1010.84
2016-04-09T07:17:45.019Z,1010.82
2016-04-09T07:18:51.350Z,1010.9
2016-04-09T07:19:45.072Z,1010.86
2016-04-09T07:20:45.105Z,1010.9
2016-04-09T07:21:45.123Z,1010.91
2016-04-09T07:22:45.141Z,1010.9
2016-04-09T07:23:45.175Z,1010.87
2016-04-09T07:24:45.193Z,1010.87
2016-04-09T07:25:45.227Z,1010.91
2016-04-09T07:26:45.246Z,1010.88
2016-04-09T07:27:45.280Z,1010.91
2016-04-09T07:28:58.033Z,1010.93
2016-04-09T07:29:45.426Z,1010.91
2016-04-09T07:31:11.038Z,1010.91
2016-04-09T07:31:55.228Z,1010.91
2016-04-09T07:32:58.387Z,1010.91
2016-04-09T07:33:58.421Z,1010.94
2016-04-09T07:34:58.439Z,1010.92
2016-04-09T07:36:08.035Z,1010.96
2016-04-09T07:37:08.070Z,1010.94
2016-04-09T07:38:08.087Z,1010.95
2016-04-09T07:39:08.122Z,1010.97
2016-04-09T07:40:08.140Z,1010.97
2016-04-09T07:41:08.174Z,1010.99
2016-04-09T07:42:08.208Z,1011.01
2016-04-09T07:43:08.226Z,1010.98
2016-04-09T07:44:08.261Z,1010.99
2016-04-09T07:45:14.545Z,1010.96
2016-04-09T07:46:08.298Z,1010.95
2016-04-09T07:47:08.347Z,1010.93
2016-04-09T07:48:08.365Z,1010.9
2016-04-09T07:49:14.649Z,1010.9
2016-04-09T07:50:08.417Z,1010.88
2016-04-09T07:51:08.436Z,1010.84
2016-04-09T07:52:08.469Z,1010.84
2016-04-09T07:53:08.488Z,1010.82
2016-04-09T07:54:08.521Z,1010.85
2016-04-09T07:55:08.540Z,1010.83
2016-04-09T07:56:08.574Z,1010.81
2016-04-09T07:57:08.592Z,1010.8
2016-04-09T07:58:21.344Z,1010.8
2016-04-09T07:59:08.676Z,1010.82
2016-04-09T08:00:21.413Z,1010.79
2016-04-09T08:01:08.696Z,1010.76
2016-04-09T08:02:08.730Z,1010.79
2016-04-09T08:03:18.061Z,1010.81
2016-04-09T08:04:11.814Z,1010.84
2016-04-09T08:05:24.582Z,1010.82
2016-04-09T08:06:11.866Z,1010.84
2016-04-09T08:07:37.559Z,1010.86
2016-04-09T08:08:21.418Z,1010.81
2016-04-09T08:09:21.437Z,1010.79
2016-04-09T08:10:21.487Z,1010.82
2016-04-09T08:11:34.084Z,1010.8
2016-04-09T08:12:56.760Z,1010.81
2016-04-09T08:13:40.701Z,1010.81
2016-04-09T08:14:40.719Z,1010.82
2016-04-09T08:15:40.753Z,1010.8
2016-04-09T08:16:53.506Z,1010.81
2016-04-09T08:17:40.789Z,1010.8
2016-04-09T08:18:40.917Z,1010.76
2016-04-09T08:19:50.264Z,1010.77
2016-04-09T08:20:44.016Z,1010.76
2016-04-09T08:22:59.209Z,1010.74
2016-04-09T08:23:59.228Z,1010.74
2016-04-09T08:24:59.261Z,1010.76
2016-04-09T08:25:59.280Z,1010.74
2016-04-09T08:26:59.298Z,1010.73
2016-04-09T08:27:59.316Z,1010.71
2016-04-09T08:28:59.397Z,1010.71
2016-04-09T08:29:59.368Z,1010.73
2016-04-09T08:30:59.387Z,1010.71
2016-04-09T08:31:59.405Z,1010.73
2016-04-09T08:32:59.439Z,1010.73
2016-04-09T08:34:05.723Z,1010.75
2016-04-09T08:34:59.491Z,1010.73
2016-04-09T08:35:59.509Z,1010.76
2016-04-09T08:36:59.529Z,1010.73
2016-04-09T08:37:59.546Z,1010.76
2016-04-09T08:38:59.565Z,1010.78
2016-04-09T08:39:59.582Z,1010.81
2016-04-09T08:40:59.617Z,1010.79
2016-04-09T08:41:59.620Z,1010.8
2016-04-09T08:43:12.388Z,1010.78
2016-04-09T08:43:59.672Z,1010.79
2016-04-09T08:45:18.909Z,1010.78
2016-04-09T08:46:02.787Z,1010.81
2016-04-09T08:47:22.008Z,1010.83
2016-04-09T08:48:02.823Z,1010.86
2016-04-09T08:49:02.982Z,1010.84
2016-04-09T08:50:02.876Z,1010.82
2016-04-09T08:51:02.909Z,1010.86
2016-04-09T08:52:02.912Z,1010.81
2016-04-09T08:53:02.947Z,1010.86
2016-04-09T08:54:02.949Z,1010.84
2016-04-09T08:55:02.983Z,1010.84
2016-04-09T08:56:03.001Z,1010.87
2016-04-09T08:57:03.019Z,1010.89
2016-04-09T08:58:03.053Z,1010.85
2016-04-09T08:59:15.822Z,1010.82
2016-04-09T09:00:03.183Z,1010.85
2016-04-09T09:01:03.123Z,1010.84
2016-04-09T09:02:03.142Z,1010.85
2016-04-09T09:03:03.160Z,1010.87
2016-04-09T09:04:03.257Z,1010.83
2016-04-09T09:05:03.197Z,1010.85
2016-04-09T09:06:03.216Z,1010.8
2016-04-09T09:07:03.249Z,1010.79
2016-04-09T09:08:03.269Z,1010.77
2016-04-09T09:09:16.021Z,1010.78
2016-04-09T09:10:03.305Z,1010.8
2016-04-09T09:11:03.339Z,1010.8
2016-04-09T09:12:03.342Z,1010.77
2016-04-09T09:13:03.501Z,1010.8
2016-04-09T09:14:03.394Z,1010.78
2016-04-09T09:15:03.475Z,1010.78
2016-04-09T09:16:03.446Z,1010.8
2016-04-09T09:17:03.465Z,1010.78
2016-04-09T09:18:03.482Z,1010.78
2016-04-09T09:19:03.517Z,1010.74
2016-04-09T09:20:03.535Z,1010.77
2016-04-09T09:21:03.553Z,1010.76
2016-04-09T09:22:03.571Z,1010.75
2016-04-09T09:23:03.590Z,1010.73
2016-04-09T09:24:03.609Z,1010.73
2016-04-09T09:25:03.642Z,1010.71
2016-04-09T09:26:03.661Z,1010.66
2016-04-09T09:27:16.414Z,1010.74
2016-04-09T09:28:09.962Z,1010.69
2016-04-09T09:29:03.715Z,1010.75
2016-04-09T09:30:06.797Z,1010.7
2016-04-09T09:31:06.831Z,1010.73
2016-04-09T09:32:06.848Z,1010.71
2016-04-09T09:33:06.992Z,1010.72
2016-04-09T09:34:06.901Z,1010.73
2016-04-09T09:35:06.919Z,1010.68
2016-04-09T09:36:06.938Z,1010.68
2016-04-09T09:37:06.972Z,1010.68
2016-04-09T09:38:06.989Z,1010.67
2016-04-09T09:39:07.008Z,1010.68
2016-04-09T09:40:07.027Z,1010.69
2016-04-09T09:41:07.107Z,1010.64
2016-04-09T09:42:07.063Z,1010.64
2016-04-09T09:43:07.097Z,1010.64
2016-04-09T09:44:19.849Z,1010.7
2016-04-09T09:45:07.133Z,1010.71
2016-04-09T09:46:07.152Z,1010.65
2016-04-09T09:47:07.186Z,1010.67
2016-04-09T09:48:07.204Z,1010.65
2016-04-09T09:49:07.218Z,1010.67
2016-04-09T09:50:07.265Z,1010.63
2016-04-09T09:51:07.248Z,1010.66
2016-04-09T09:52:07.286Z,1010.65
2016-04-09T09:53:07.296Z,1010.63
2016-04-09T09:54:07.330Z,1010.66
2016-04-09T09:55:07.365Z,1010.62
2016-04-09T09:56:07.383Z,1010.63
2016-04-09T09:57:07.386Z,1010.63
2016-04-09T09:58:07.404Z,1010.66
2016-04-09T09:59:07.485Z,1010.69
2016-04-09T10:00:07.456Z,1010.64
2016-04-09T10:01:07.475Z,1010.6
2016-04-09T10:02:07.494Z,1010.62
2016-04-09T10:03:07.528Z,1010.63
2016-04-09T10:04:07.562Z,1010.62
2016-04-09T10:05:07.564Z,1010.6
2016-04-09T10:06:07.599Z,1010.6
2016-04-09T10:07:07.819Z,1010.56
2016-04-09T10:08:07.651Z,1010.55
2016-04-09T10:09:07.653Z,1010.57
2016-04-09T10:10:07.688Z,1010.56
2016-04-09T10:11:07.706Z,1010.54
2016-04-09T10:12:07.724Z,1010.54
2016-04-09T10:13:07.742Z,1010.51
2016-04-09T10:14:20.510Z,1010.54
2016-04-09T10:15:07.795Z,1010.51
2016-04-09T10:16:27.016Z,1010.53
2016-04-09T10:17:07.831Z,1010.52
2016-04-09T10:18:07.866Z,1010.56
2016-04-09T10:19:07.899Z,1010.58
2016-04-09T10:20:07.902Z,1010.6
2016-04-09T10:21:20.686Z,1010.59
2016-04-09T10:22:07.954Z,1010.53
2016-04-09T10:23:07.973Z,1010.56
2016-04-09T10:24:08.006Z,1010.54
2016-04-09T10:25:20.743Z,1010.5
2016-04-09T10:26:08.043Z,1010.54
2016-04-09T10:27:08.062Z,1010.54
2016-04-09T10:28:08.096Z,1010.55
2016-04-09T10:29:08.098Z,1010.52
2016-04-09T10:30:08.147Z,1010.53
2016-04-09T10:31:20.884Z,1010.53
2016-04-09T10:32:08.184Z,1010.5
2016-04-09T10:33:33.890Z,1010.54
2016-04-09T10:34:08.299Z,1010.53
2016-04-09T10:35:08.255Z,1010.53
2016-04-09T10:36:17.930Z,1010.56
2016-04-09T10:37:17.964Z,1010.53
2016-04-09T10:38:17.982Z,1010.54
2016-04-09T10:39:18.000Z,1010.54
2016-04-09T10:40:18.033Z,1010.53
2016-04-09T10:41:18.053Z,1010.51
2016-04-09T10:42:24.352Z,1010.49
2016-04-09T10:43:18.105Z,1010.52
2016-04-09T10:44:18.123Z,1010.53
2016-04-09T10:45:18.141Z,1010.53
2016-04-09T10:46:18.175Z,1010.51
2016-04-09T10:47:18.193Z,1010.42
2016-04-09T10:48:18.227Z,1010.48
2016-04-09T10:49:18.230Z,1010.47
2016-04-09T10:50:18.264Z,1010.47
2016-04-09T10:51:31.033Z,1010.52
2016-04-09T10:52:18.316Z,1010.45
2016-04-09T10:53:18.334Z,1010.43
2016-04-09T10:54:18.353Z,1010.44
2016-04-09T10:55:19.168Z,1010.45
2016-04-09T10:56:18.405Z,1010.45
2016-04-09T10:57:18.424Z,1010.49
2016-04-09T10:58:18.442Z,1010.44
2016-04-09T10:59:18.475Z,1010.48
2016-04-09T11:00:18.494Z,1010.49
2016-04-09T11:01:18.512Z,1010.44
2016-04-09T11:02:18.546Z,1010.45
2016-04-09T11:03:18.565Z,1010.41
2016-04-09T11:04:31.318Z,1010.4
2016-04-09T11:05:19.226Z,1010.4
2016-04-09T11:06:18.635Z,1010.38
2016-04-09T11:07:18.653Z,1010.34
2016-04-09T11:08:18.687Z,1010.38
2016-04-09T11:09:18.706Z,1010.38
2016-04-09T11:10:18.724Z,1010.35
2016-04-09T11:11:18.759Z,1010.36
2016-04-09T11:12:18.776Z,1010.33
2016-04-09T11:13:31.529Z,1010.33
2016-04-09T11:14:18.828Z,1010.37
2016-04-09T11:15:18.847Z,1010.38
2016-04-09T11:16:18.881Z,1010.33
2016-04-09T11:17:18.899Z,1010.41
2016-04-09T11:18:18.918Z,1010.39
2016-04-09T11:19:18.935Z,1010.42
2016-04-09T11:20:18.969Z,1010.4
2016-04-09T11:21:18.988Z,1010.38
2016-04-09T11:22:19.007Z,1010.35
2016-04-09T11:23:19.040Z,1010.35
2016-04-09T11:24:19.059Z,1010.32
2016-04-09T11:25:19.077Z,1010.31
2016-04-09T11:26:19.111Z,1010.29
2016-04-09T11:27:20.535Z,1010.32
2016-04-09T11:28:19.148Z,1010.35
2016-04-09T11:29:19.182Z,1010.34
2016-04-09T11:30:20.606Z,1010.31
2016-04-09T11:31:19.218Z,1010.36
2016-04-09T11:32:19.237Z,1010.34
2016-04-09T11:33:19.301Z,1010.37
2016-04-09T11:34:19.304Z,1010.39
2016-04-09T11:35:19.306Z,1010.29
2016-04-09T11:36:19.342Z,1010.29
2016-04-09T11:37:19.359Z,1010.3
2016-04-09T11:38:38.580Z,1010.27
2016-04-09T11:39:19.395Z,1010.25
2016-04-09T11:40:19.445Z,1010.23
2016-04-09T11:41:19.447Z,1010.3
2016-04-09T11:42:19.591Z,1010.22
2016-04-09T11:43:19.500Z,1010.25
2016-04-09T11:44:19.628Z,1010.25
2016-04-09T11:45:19.552Z,1010.24
2016-04-09T11:46:19.571Z,1010.19
2016-04-09T11:47:19.589Z,1010.22
2016-04-09T11:48:19.623Z,1010.19
2016-04-09T11:49:19.641Z,1010.21
2016-04-09T11:50:19.660Z,1010.18
2016-04-09T11:51:19.693Z,1010.13
2016-04-09T11:52:19.712Z,1010.14
2016-04-09T11:53:19.730Z,1010.14
2016-04-09T11:54:19.764Z,1010.13
2016-04-09T11:55:19.782Z,1010.17
2016-04-09T11:56:19.801Z,1010.18
2016-04-09T11:57:19.834Z,1010.17
2016-04-09T11:58:19.853Z,1010.2
2016-04-09T11:59:19.871Z,1010.23
2016-04-09T12:00:32.624Z,1010.23
2016-04-09T12:01:19.923Z,1010.25
2016-04-09T12:02:19.942Z,1010.19
2016-04-09T12:03:26.242Z,1010.24
2016-04-09T12:04:19.978Z,1010.24
2016-04-09T12:05:20.012Z,1010.27
2016-04-09T12:06:45.718Z,1010.28
2016-04-09T12:07:23.955Z,1010.26
2016-04-09T12:08:23.989Z,1010.24
2016-04-09T12:09:24.008Z,1010.23
2016-04-09T12:10:24.025Z,1010.22
2016-04-09T12:11:24.060Z,1010.14
2016-04-09T12:12:24.078Z,1010.11
2016-04-09T12:13:24.096Z,1010.12
2016-04-09T12:14:24.130Z,1010.12
2016-04-09T12:15:24.149Z,1010.13
2016-04-09T12:16:24.183Z,1010.15
2016-04-09T12:17:24.201Z,1010.16
2016-04-09T12:18:24.219Z,1010.14
2016-04-09T12:19:24.253Z,1010.12
2016-04-09T12:20:24.271Z,1010.1
2016-04-09T12:21:24.290Z,1010.14
2016-04-09T12:22:24.324Z,1010.11
2016-04-09T12:23:24.342Z,1010.13
2016-04-09T12:24:24.360Z,1010.11
2016-04-09T12:25:30.660Z,1010.07